Houston Lake, Missouri
Current Conditions -  °F | °C
As of 11:54 PM on Friday 31 Oct 2014 (Local Time) from KMKC Reporting Station
Clear Clear  
Wind Chill: 26°   Ceiling: Unl
Heat Index: 32°   Visibility: 10mi
Dew Point: 19°   Wind: 6mph
Humidity: 59%   Direction: 50°NE
Pressure: 30.47"   Gusts: NA
Location:  39.2125°N, 94.6296°W
Report Text: KMKC 010454Z 05005KT 10SM CLR 00/M07 A3047 RMK AO2 SLP322 T00001072
Loading
Personal Weather Stations






























Interactive Weather Map New forecast layout! Learn more

10-Day Weather Forecast

Advertisements
Track Severe Weather on mobile